Time;durP1;ratioP1;P1;durP2;ratioP2;P2;SDS_P1;SDS_P2;PMS_P1;PMS_P2;Temp;Humidity;BMP_temperature;BMP_pressure;BME280_temperature;BME280_humidity;BME280_pressure;Samples;Min_cycle;Max_cycle;Signal;HPM_P1;HPM_P2
2021/08/15 00:00:50;;;;;;;17.02;4.95;;;18.70;97.90;;;;;;4837198;29;20057;-82
2021/08/15 00:03:18;;;;;;;15.80;5.80;;;18.70;97.80;;;;;;4837295;29;20058;-81
2021/08/15 00:05:46;;;;;;;17.70;5.85;;;18.30;97.70;;;;;;4835787;29;20058;-82
2021/08/15 00:08:15;;;;;;;18.92;6.13;;;18.70;97.80;;;;;;4828773;29;20063;-82
2021/08/15 00:10:44;;;;;;;14.32;5.05;;;18.60;97.80;;;;;;4831228;29;20062;-82
2021/08/15 00:13:12;;;;;;;14.35;4.90;;;18.60;98.00;;;;;;4820484;29;20062;-82
2021/08/15 00:15:41;;;;;;;14.30;5.57;;;18.60;98.10;;;;;;4825216;29;20075;-82
2021/08/15 00:18:09;;;;;;;16.90;4.82;;;18.50;97.90;;;;;;4849349;29;20063;-82
2021/08/15 00:20:37;;;;;;;15.05;5.55;;;18.50;98.00;;;;;;4845643;29;20062;-81
2021/08/15 00:23:05;;;;;;;14.98;5.68;;;18.40;98.40;;;;;;4838738;29;20381;-82
2021/08/15 00:25:33;;;;;;;17.73;4.97;;;18.40;98.50;;;;;;4833830;29;20072;-82
2021/08/15 00:28:02;;;;;;;19.02;5.72;;;18.40;98.70;;;;;;4834865;29;20533;-82
2021/08/15 00:30:30;;;;;;;12.30;4.80;;;18.30;99.10;;;;;;4820377;29;20058;-82
2021/08/15 00:33:00;;;;;;;14.38;4.93;;;18.30;99.00;;;;;;4845741;29;20058;-82
2021/08/15 00:35:29;;;;;;;15.20;5.10;;;18.30;99.20;;;;;;4827117;29;20068;-82
2021/08/15 00:37:57;;;;;;;15.13;5.22;;;18.20;99.40;;;;;;4845594;29;20114;-82
2021/08/15 00:40:26;;;;;;;14.68;4.78;;;18.20;99.60;;;;;;4836307;29;20072;-82
2021/08/15 00:42:55;;;;;;;17.42;4.70;;;18.10;99.70;;;;;;4838633;29;20352;-82
2021/08/15 00:45:23;;;;;;;34.60;8.23;;;18.10;99.80;;;;;;4851154;29;20273;-81
2021/08/15 00:47:52;;;;;;;18.17;5.65;;;18.10;99.90;;;;;;4843304;29;20086;-82
2021/08/15 00:50:20;;;;;;;21.67;5.25;;;18.10;99.90;;;;;;4836004;29;20059;-81
2021/08/15 00:52:48;;;;;;;18.45;5.15;;;18.10;99.90;;;;;;4839400;29;20055;-82
2021/08/15 00:55:16;;;;;;;14.88;5.70;;;18.00;99.90;;;;;;4824855;29;20360;-82
2021/08/15 00:57:47;;;;;;;15.95;5.20;;;18.00;99.90;;;;;;4850246;29;20064;-82
2021/08/15 01:00:16;;;;;;;23.95;6.85;;;18.00;99.90;;;;;;4838089;29;20062;-82
2021/08/15 01:02:47;;;;;;;16.25;5.88;;;18.00;99.90;;;;;;4839873;29;20047;-81
2021/08/15 01:05:17;;;;;;;15.98;4.65;;;18.00;99.90;;;;;;4823909;29;20058;-83
2021/08/15 01:07:45;;;;;;;19.35;5.68;;;18.00;99.90;;;;;;4833610;29;20060;-83
2021/08/15 01:10:17;;;;;;;16.38;5.60;;;17.10;99.90;;;;;;4829522;29;20059;-82
2021/08/15 01:12:48;;;;;;;10.85;4.25;;;18.00;99.90;;;;;;4850209;29;20415;-81
2021/08/15 01:15:17;;;;;;;14.63;4.90;;;18.00;99.90;;;;;;4839143;29;20046;-82
2021/08/15 01:17:46;;;;;;;10.93;4.43;;;18.00;99.90;;;;;;4850698;29;20065;-82
2021/08/15 01:20:14;;;;;;;15.80;4.90;;;17.90;99.90;;;;;;4827775;29;20313;-81
2021/08/15 01:22:44;;;;;;;13.50;4.47;;;17.90;99.90;;;;;;4833999;29;20074;-81
2021/08/15 01:25:15;;;;;;;14.40;5.10;;;17.90;99.90;;;;;;4856686;29;20074;-81
2021/08/15 01:27:44;;;;;;;17.92;5.38;;;17.80;99.90;;;;;;4845411;29;20058;-82
2021/08/15 01:30:15;;;;;;;12.73;5.72;;;17.80;99.90;;;;;;4838349;29;20054;-81
2021/08/15 01:32:45;;;;;;;15.77;5.97;;;17.80;99.90;;;;;;4818077;29;20064;-81
2021/08/15 01:35:13;;;;;;;14.35;4.03;;;17.70;99.90;;;;;;4850516;29;20073;-81
2021/08/15 01:37:41;;;;;;;17.27;5.68;;;17.70;99.90;;;;;;4837982;29;20532;-82
2021/08/15 01:40:10;;;;;;;17.38;4.75;;;17.60;99.90;;;;;;4821703;29;20058;-82
2021/08/15 01:42:38;;;;;;;16.65;5.45;;;17.60;99.90;;;;;;4852489;29;20064;-82
2021/08/15 01:45:11;;;;;;;19.85;7.68;;;17.50;99.90;;;;;;4807284;29;20073;-82
2021/08/15 01:47:39;;;;;;;11.20;4.45;;;17.50;99.90;;;;;;4836620;29;20066;-82
2021/08/15 01:50:09;;;;;;;17.02;5.10;;;17.40;99.90;;;;;;4851982;29;20054;-82
2021/08/15 01:52:38;;;;;;;19.40;6.97;;;17.40;99.90;;;;;;4837242;29;20470;-82
2021/08/15 01:55:07;;;;;;;17.02;6.13;;;17.30;99.90;;;;;;4835563;29;20299;-81
2021/08/15 01:57:35;;;;;;;10.57;4.05;;;17.40;99.90;;;;;;4845846;29;20064;-81
2021/08/15 02:00:06;;;;;;;11.98;5.00;;;17.30;99.90;;;;;;4842030;29;20061;-82
2021/08/15 02:02:42;;;;;;;16.25;4.38;;;17.30;99.90;;;;;;4840597;29;20054;-82
2021/08/15 02:05:18;;;;;;;14.75;4.35;;;17.30;99.90;;;;;;4839677;29;20128;-81
2021/08/15 02:07:47;;;;;;;20.05;5.47;;;17.30;99.90;;;;;;4841333;29;20058;-81
2021/08/15 02:10:16;;;;;;;18.05;4.57;;;17.30;99.90;;;;;;4838660;29;20064;-81
2021/08/15 02:12:44;;;;;;;16.75;4.30;;;17.30;99.90;;;;;;4838988;29;20068;-82
2021/08/15 02:15:12;;;;;;;19.00;5.13;;;17.30;99.90;;;;;;4837829;29;20058;-82
2021/08/15 02:17:39;;;;;;;15.38;4.82;;;17.30;99.90;;;;;;4850646;29;20996;-81
2021/08/15 02:20:08;;;;;;;18.40;4.97;;;17.30;99.90;;;;;;4838015;29;20072;-81
2021/08/15 02:22:36;;;;;;;17.30;4.28;;;17.30;99.90;;;;;;4837964;29;20296;-81
2021/08/15 02:25:09;;;;;;;18.83;4.78;;;17.30;99.90;;;;;;4837825;29;20074;-81
2021/08/15 02:27:38;;;;;;;17.45;5.88;;;17.30;99.90;;;;;;4854186;29;20061;-82
2021/08/15 02:30:09;;;;;;;12.23;5.50;;;17.30;99.90;;;;;;4819939;29;20059;-81
2021/08/15 02:32:38;;;;;;;14.57;3.88;;;17.30;99.90;;;;;;4842681;29;20381;-81
2021/08/15 02:35:08;;;;;;;15.70;5.07;;;17.30;99.90;;;;;;4852202;29;20054;-82
2021/08/15 02:37:38;;;;;;;14.13;4.28;;;17.20;99.90;;;;;;4837196;29;20050;-82
2021/08/15 02:40:08;;;;;;;16.70;5.43;;;17.20;99.90;;;;;;4830888;29;20069;-82
2021/08/15 02:42:39;;;;;;;13.30;4.47;;;17.20;99.90;;;;;;4838921;29;20073;-82
2021/08/15 02:45:10;;;;;;;16.85;4.80;;;17.20;99.90;;;;;;4838414;29;20069;-82
2021/08/15 02:47:38;;;;;;;13.52;4.38;;;17.20;99.90;;;;;;4837904;29;20058;-81
2021/08/15 02:50:09;;;;;;;21.30;6.32;;;17.20;99.90;;;;;;4836900;29;20449;-82
2021/08/15 02:52:37;;;;;;;12.60;4.97;;;17.20;99.90;;;;;;4835326;29;20067;-81
2021/08/15 02:55:06;;;;;;;20.95;4.75;;;17.20;99.90;;;;;;4853205;29;20290;-82
2021/08/15 02:57:35;;;;;;;12.15;4.40;;;17.30;99.90;;;;;;4843902;29;20058;-81
2021/08/15 03:00:06;;;;;;;12.88;6.20;;;17.10;99.90;;;;;;4843607;29;20252;-81
2021/08/15 03:02:34;;;;;;;13.93;4.35;;;17.10;99.90;;;;;;4831755;29;20058;-82
2021/08/15 03:05:04;;;;;;;13.15;5.40;;;17.10;99.90;;;;;;4830685;29;20058;-82
2021/08/15 03:07:32;;;;;;;9.45;4.13;;;17.00;99.90;;;;;;4833699;29;20073;-81
2021/08/15 03:10:00;;;;;;;14.93;5.35;;;17.00;99.90;;;;;;4837024;29;20054;-82
2021/08/15 03:12:28;;;;;;;12.05;4.43;;;17.00;99.90;;;;;;4836456;29;20062;-82
2021/08/15 03:14:57;;;;;;;17.85;4.93;;;17.00;99.90;;;;;;4808855;29;20058;-81
2021/08/15 03:17:25;;;;;;;15.90;4.75;;;16.90;99.90;;;;;;4848805;29;20140;-82
2021/08/15 03:19:53;;;;;;;10.95;4.47;;;16.90;99.90;;;;;;4808577;29;20062;-81
2021/08/15 03:22:21;;;;;;;14.15;4.38;;;16.90;99.90;;;;;;4830516;29;20497;-82
2021/08/15 03:24:49;;;;;;;14.93;5.40;;;16.80;99.90;;;;;;4839418;29;20062;-81
2021/08/15 03:27:17;;;;;;;20.50;6.20;;;16.80;99.90;;;;;;4851623;29;20050;-82
2021/08/15 03:29:45;;;;;;;16.98;6.20;;;16.80;99.90;;;;;;4835695;29;20066;-82
2021/08/15 03:32:13;;;;;;;12.18;4.32;;;16.70;99.90;;;;;;4837071;29;20058;-81
2021/08/15 03:34:41;;;;;;;16.67;5.72;;;16.90;99.90;;;;;;4835984;29;20058;-82
2021/08/15 03:37:08;;;;;;;17.02;4.43;;;16.60;99.90;;;;;;4837431;29;20057;-82
2021/08/15 03:39:36;;;;;;;18.90;8.38;;;16.60;99.90;;;;;;4836314;29;20061;-82
2021/08/15 03:42:04;;;;;;;17.15;5.25;;;16.50;99.90;;;;;;4842485;29;20054;-82
2021/08/15 03:44:32;;;;;;;13.65;4.63;;;16.50;99.90;;;;;;4854795;29;20081;-82
2021/08/15 03:47:03;;;;;;;12.65;4.85;;;16.40;99.90;;;;;;4826817;29;20124;-81
2021/08/15 03:49:31;;;;;;;16.95;5.88;;;16.40;99.90;;;;;;4845952;29;20077;-81
2021/08/15 03:51:59;;;;;;;22.23;5.28;;;16.30;99.90;;;;;;4823041;29;20517;-82
2021/08/15 03:54:28;;;;;;;14.68;4.60;;;16.30;99.90;;;;;;4836632;29;20334;-82
2021/08/15 03:56:56;;;;;;;19.40;6.63;;;16.20;99.90;;;;;;4839217;29;20064;-82
2021/08/15 03:59:24;;;;;;;14.95;5.15;;;16.20;99.90;;;;;;4863457;29;20062;-81
2021/08/15 04:01:52;;;;;;;14.50;5.22;;;16.20;99.90;;;;;;4824001;29;20066;-82
2021/08/15 04:04:20;;;;;;;11.82;4.68;;;16.20;99.90;;;;;;4853185;29;20062;-82
2021/08/15 04:06:49;;;;;;;15.48;5.70;;;16.10;99.90;;;;;;4832012;29;20071;-81
2021/08/15 04:09:16;;;;;;;19.27;6.25;;;16.40;99.90;;;;;;4820195;29;20050;-82
2021/08/15 04:11:44;;;;;;;14.65;7.03;;;16.10;99.90;;;;;;4836831;29;20058;-82
2021/08/15 04:14:12;;;;;;;14.95;5.00;;;16.10;99.90;;;;;;4837146;29;20050;-82
2021/08/15 04:16:40;;;;;;;23.58;6.10;;;16.00;99.90;;;;;;4855034;29;20058;-81
2021/08/15 04:19:08;;;;;;;13.75;5.20;;;16.00;99.90;;;;;;4841039;29;20062;-81
2021/08/15 04:21:36;;;;;;;19.48;5.90;;;15.90;99.90;;;;;;4838797;29;20057;-81
2021/08/15 04:24:05;;;;;;;19.25;5.43;;;15.90;99.90;;;;;;4841239;29;20067;-81
2021/08/15 04:26:35;;;;;;;19.77;5.65;;;15.90;99.90;;;;;;4844734;29;20050;-81
2021/08/15 04:29:03;;;;;;;20.63;5.65;;;15.80;99.90;;;;;;4849499;29;20055;-82
2021/08/15 04:31:30;;;;;;;16.38;5.72;;;15.80;99.90;;;;;;4841104;29;20069;-81
2021/08/15 04:33:58;;;;;;;13.68;4.90;;;15.70;99.90;;;;;;4833999;29;20050;-82
2021/08/15 04:36:28;;;;;;;14.30;5.47;;;15.90;99.90;;;;;;4833777;29;20061;-81
2021/08/15 04:38:55;;;;;;;13.73;5.72;;;15.70;99.90;;;;;;4839874;29;20568;-81
2021/08/15 04:41:25;;;;;;;14.95;5.60;;;15.70;99.90;;;;;;4855608;29;20062;-82
2021/08/15 04:43:56;;;;;;;25.17;7.82;;;15.60;99.90;;;;;;4857274;29;20064;-81
2021/08/15 04:46:24;;;;;;;17.92;6.78;;;15.60;99.90;;;;;;4839206;29;20054;-82
2021/08/15 04:48:53;;;;;;;12.70;4.90;;;15.50;99.90;;;;;;4842391;29;20038;-82
2021/08/15 04:51:22;;;;;;;23.55;5.95;;;15.70;99.90;;;;;;4842177;29;20054;-82
2021/08/15 04:53:54;;;;;;;19.27;5.60;;;15.90;99.90;;;;;;4840552;29;20062;-81
2021/08/15 04:56:25;;;;;;;15.77;6.97;;;15.50;99.90;;;;;;4824947;29;20066;-82
2021/08/15 04:58:56;;;;;;;14.02;5.53;;;15.50;99.90;;;;;;4854520;29;20065;-82
2021/08/15 05:01:27;;;;;;;16.13;5.60;;;15.40;99.90;;;;;;4842022;29;20073;-82
2021/08/15 05:04:01;;;;;;;11.70;4.38;;;15.50;99.90;;;;;;4858250;29;20058;-82
2021/08/15 05:06:33;;;;;;;16.90;5.93;;;15.40;99.90;;;;;;4838458;29;20063;-81
2021/08/15 05:09:04;;;;;;;13.52;4.93;;;15.50;99.90;;;;;;4826696;29;20058;-82
2021/08/15 05:11:33;;;;;;;17.30;5.35;;;15.50;99.90;;;;;;4826279;29;20134;-82
2021/08/15 05:14:07;;;;;;;15.57;5.55;;;15.50;99.90;;;;;;4822284;29;20066;-81
2021/08/15 05:16:35;;;;;;;12.15;5.13;;;15.50;99.90;;;;;;4853611;29;20136;-82
2021/08/15 05:19:04;;;;;;;19.50;5.93;;;15.50;99.90;;;;;;4842603;29;20058;-81
2021/08/15 05:21:36;;;;;;;18.00;5.43;;;15.50;99.90;;;;;;4840484;29;20061;-82
2021/08/15 05:24:05;;;;;;;13.13;4.85;;;15.50;99.90;;;;;;4833623;29;20054;-82
2021/08/15 05:26:36;;;;;;;21.03;6.57;;;15.60;99.90;;;;;;4845259;29;20050;-82
2021/08/15 05:29:05;;;;;;;14.00;5.80;;;15.60;99.90;;;;;;4832677;29;20351;-81
2021/08/15 05:31:33;;;;;;;25.08;6.90;;;15.60;99.90;;;;;;4823981;29;20054;-82
2021/08/15 05:34:03;;;;;;;16.85;5.70;;;15.60;99.90;;;;;;4817061;29;20050;-82
2021/08/15 05:36:55;;;;;;;16.27;7.15;;;15.60;99.90;;;;;;4829365;29;20061;-82
2021/08/15 05:39:23;;;;;;;13.90;5.65;;;15.70;99.90;;;;;;4840511;29;20076;-82
2021/08/15 05:41:55;;;;;;;22.67;7.05;;;15.70;99.90;;;;;;4845445;29;20057;-82
2021/08/15 05:44:24;;;;;;;23.23;6.63;;;15.70;99.90;;;;;;4850975;29;20055;-81
2021/08/15 05:46:51;;;;;;;22.95;9.13;;;15.80;99.90;;;;;;4825925;29;20058;-82
2021/08/15 05:49:20;;;;;;;19.55;8.60;;;15.80;99.90;;;;;;4837827;29;20065;-82
2021/08/15 05:51:49;;;;;;;21.88;9.18;;;15.90;99.90;;;;;;4838310;29;20062;-82
2021/08/15 05:54:17;;;;;;;21.67;8.30;;;15.90;99.90;;;;;;4842062;29;20549;-81
2021/08/15 05:56:46;;;;;;;17.48;8.55;;;15.90;99.90;;;;;;4840534;29;20066;-81
2021/08/15 05:59:14;;;;;;;21.17;8.10;;;16.00;99.90;;;;;;4819782;29;20064;-81
2021/08/15 06:01:42;;;;;;;21.10;7.82;;;16.00;99.90;;;;;;4847079;29;20484;-81
2021/08/15 06:04:12;;;;;;;17.48;7.32;;;16.00;99.90;;;;;;4828558;29;20058;-81
2021/08/15 06:06:41;;;;;;;16.02;6.93;;;16.10;99.90;;;;;;4836811;29;20055;-82
2021/08/15 06:09:10;;;;;;;22.33;7.68;;;16.10;99.90;;;;;;4824249;29;20062;-82
2021/08/15 06:11:39;;;;;;;15.65;7.32;;;16.20;99.90;;;;;;4839329;29;20061;-83
2021/08/15 06:14:10;;;;;;;23.40;7.25;;;16.20;99.90;;;;;;4840469;29;20043;-81
2021/08/15 06:16:40;;;;;;;17.90;7.45;;;16.20;99.90;;;;;;4824590;29;20050;-82
2021/08/15 06:19:08;;;;;;;21.00;9.45;;;16.30;99.90;;;;;;4824449;29;20062;-82
2021/08/15 06:21:38;;;;;;;17.55;8.63;;;16.30;99.90;;;;;;4840879;29;20046;-82
2021/08/15 06:24:08;;;;;;;29.00;7.72;;;16.40;99.90;;;;;;4839951;29;20071;-82
2021/08/15 06:26:37;;;;;;;18.00;8.77;;;16.40;99.90;;;;;;4838682;29;20046;-82
2021/08/15 06:29:08;;;;;;;27.92;9.55;;;16.40;99.90;;;;;;4821498;29;20416;-82
2021/08/15 06:31:36;;;;;;;21.92;8.90;;;16.50;99.90;;;;;;4835895;29;20070;-82
2021/08/15 06:34:06;;;;;;;17.52;9.00;;;16.50;99.90;;;;;;4820760;29;20073;-82
2021/08/15 06:36:36;;;;;;;21.70;9.10;;;16.70;99.90;;;;;;4839605;29;20081;-81
2021/08/15 06:39:06;;;;;;;22.83;9.20;;;16.60;99.90;;;;;;4840507;29;20080;-82
2021/08/15 06:41:35;;;;;;;15.25;8.68;;;16.70;99.90;;;;;;4857358;29;20064;-82
2021/08/15 06:44:04;;;;;;;18.00;9.15;;;16.70;99.90;;;;;;4843473;29;20050;-81
2021/08/15 06:46:35;;;;;;;17.35;7.60;;;16.80;99.90;;;;;;4847100;29;20077;-82
2021/08/15 06:49:03;;;;;;;17.58;8.00;;;16.90;99.90;;;;;;4840154;29;20066;-83
2021/08/15 06:51:31;;;;;;;20.65;8.43;;;17.00;99.90;;;;;;4807386;29;20062;-82
2021/08/15 06:54:02;;;;;;;12.45;6.45;;;17.10;99.90;;;;;;4819843;29;20062;-82
2021/08/15 06:56:30;;;;;;;15.85;7.72;;;17.20;99.90;;;;;;4844338;29;20440;-82
2021/08/15 06:59:03;;;;;;;15.73;6.82;;;17.30;99.90;;;;;;4843873;29;20050;-81
2021/08/15 07:01:32;;;;;;;20.73;7.57;;;17.30;99.90;;;;;;4838779;29;20054;-82
2021/08/15 07:04:01;;;;;;;12.32;5.57;;;17.30;99.90;;;;;;4856351;29;20054;-82
2021/08/15 07:06:30;;;;;;;15.32;7.57;;;17.30;99.90;;;;;;4844849;29;20062;-81
2021/08/15 07:08:58;;;;;;;13.07;6.07;;;17.40;99.90;;;;;;4816789;29;20058;-82
2021/08/15 07:11:26;;;;;;;13.95;6.50;;;17.40;99.90;;;;;;4837282;29;20058;-82
2021/08/15 07:13:55;;;;;;;10.40;5.95;;;17.40;99.90;;;;;;4839024;29;20054;-82
2021/08/15 07:16:23;;;;;;;17.10;6.47;;;17.50;99.90;;;;;;4834029;29;20050;-82
2021/08/15 07:18:51;;;;;;;12.27;7.28;;;17.50;99.90;;;;;;4828886;29;20072;-82
2021/08/15 07:21:21;;;;;;;12.93;5.50;;;17.60;99.90;;;;;;4839299;29;20058;-82
2021/08/15 07:23:49;;;;;;;12.88;5.95;;;17.60;99.90;;;;;;4803903;29;20070;-82
2021/08/15 07:26:19;;;;;;;12.18;5.57;;;17.70;99.90;;;;;;4834993;29;20062;-82
2021/08/15 07:28:48;;;;;;;11.73;5.72;;;17.70;99.90;;;;;;4838990;29;20062;-81
2021/08/15 07:31:16;;;;;;;10.43;5.53;;;17.80;99.90;;;;;;4842826;29;20058;-81
2021/08/15 07:33:46;;;;;;;13.45;5.68;;;17.80;99.90;;;;;;4831481;29;20058;-82
2021/08/15 07:36:15;;;;;;;13.00;5.90;;;17.80;99.90;;;;;;4818639;29;20074;-82
2021/08/15 07:38:43;;;;;;;11.30;5.15;;;17.90;99.90;;;;;;4852206;29;20064;-80
2021/08/15 07:41:12;;;;;;;15.60;6.13;;;17.90;99.90;;;;;;4838756;29;20513;-82
2021/08/15 07:43:40;;;;;;;10.65;6.32;;;17.90;99.90;;;;;;4853096;29;20060;-81
2021/08/15 07:46:13;;;;;;;12.93;6.07;;;17.90;99.90;;;;;;4822394;29;20058;-82
2021/08/15 07:48:42;;;;;;;7.63;4.15;;;17.90;99.90;;;;;;4852791;29;20224;-82
2021/08/15 07:51:18;;;;;;;5.35;3.45;;;17.90;99.90;;;;;;4827527;29;20059;-82
2021/08/15 07:53:50;;;;;;;7.85;3.95;;;17.90;99.90;;;;;;4822051;29;20519;-82
2021/08/15 07:56:22;;;;;;;8.88;3.55;;;18.00;99.90;;;;;;4836583;29;20058;-83
2021/08/15 07:58:55;;;;;;;8.70;4.40;;;18.10;99.90;;;;;;4851779;29;20064;-82
2021/08/15 08:01:27;;;;;;;10.05;4.45;;;18.10;99.90;;;;;;4837220;29;20071;-82
2021/08/15 08:03:56;;;;;;;16.00;4.30;;;18.10;99.90;;;;;;4838341;29;20058;-81
2021/08/15 08:06:28;;;;;;;5.93;3.17;;;18.10;99.90;;;;;;4848180;29;20058;-82
2021/08/15 08:08:57;;;;;;;7.63;3.78;;;18.20;99.90;;;;;;4850093;29;20421;-83
2021/08/15 08:11:25;;;;;;;11.52;4.63;;;18.20;99.90;;;;;;4833130;29;20062;-82
2021/08/15 08:13:54;;;;;;;7.28;3.63;;;18.20;99.90;;;;;;4827755;29;20050;-82
2021/08/15 08:16:24;;;;;;;8.77;3.97;;;18.40;99.90;;;;;;4837380;29;20061;-82
2021/08/15 08:18:54;;;;;;;11.23;3.60;;;18.50;99.90;;;;;;4817726;29;20062;-83
2021/08/15 08:21:22;;;;;;;10.40;4.85;;;18.60;99.90;;;;;;4835176;29;20054;-81
2021/08/15 08:23:49;;;;;;;8.48;4.10;;;18.70;99.90;;;;;;4836528;29;20065;-82
2021/08/15 08:26:18;;;;;;;9.75;4.07;;;18.80;99.90;;;;;;4833903;29;20066;-82
2021/08/15 08:28:47;;;;;;;9.30;4.03;;;18.80;99.90;;;;;;4842948;29;20058;-81
2021/08/15 08:31:15;;;;;;;8.70;4.22;;;18.90;99.90;;;;;;4853130;29;20076;-82
2021/08/15 08:33:46;;;;;;;9.70;4.55;;;19.00;99.90;;;;;;4847876;29;20068;-81
2021/08/15 08:36:13;;;;;;;8.52;4.22;;;19.00;99.90;;;;;;4830611;29;20050;-82
2021/08/15 08:38:42;;;;;;;10.38;4.97;;;19.10;99.90;;;;;;4841083;29;20069;-82
2021/08/15 08:41:14;;;;;;;12.27;4.53;;;19.20;99.90;;;;;;4836327;29;20063;-82
2021/08/15 08:43:43;;;;;;;7.70;3.85;;;19.40;99.90;;;;;;4835101;29;20054;-82
2021/08/15 08:46:12;;;;;;;10.35;4.50;;;19.50;99.90;;;;;;4820954;29;20129;-81
2021/08/15 08:48:42;;;;;;;7.00;3.35;;;19.70;99.90;;;;;;4827758;29;20058;-81
2021/08/15 08:51:11;;;;;;;7.75;3.63;;;18.70;99.90;;;;;;4846932;29;20058;-82
2021/08/15 08:53:39;;;;;;;12.15;4.60;;;19.80;99.90;;;;;;4836703;29;20063;-82
2021/08/15 08:56:07;;;;;;;6.07;3.53;;;19.80;99.90;;;;;;4833130;29;20310;-82
2021/08/15 08:58:35;;;;;;;5.78;3.05;;;19.80;99.90;;;;;;4836548;29;20054;-81
2021/08/15 09:01:03;;;;;;;7.97;3.30;;;19.90;99.90;;;;;;4836411;29;20062;-82
2021/08/15 09:03:31;;;;;;;7.70;3.33;;;20.00;99.90;;;;;;4839943;29;20515;-82
2021/08/15 09:05:59;;;;;;;8.73;2.95;;;20.10;99.90;;;;;;4834277;29;20058;-82
2021/08/15 09:08:33;;;;;;;11.38;3.60;;;20.20;99.90;;;;;;4837966;29;20065;-82
2021/08/15 09:11:17;;;;;;;8.55;3.42;;;20.40;99.90;;;;;;4837470;29;20058;-82
2021/08/15 09:14:07;;;;;;;10.10;2.92;;;20.50;99.90;;;;;;4845613;29;20062;-82
2021/08/15 09:16:55;;;;;;;6.55;3.45;;;20.70;99.90;;;;;;4857445;29;20046;-81
2021/08/15 09:19:25;;;;;;;8.10;2.88;;;20.90;99.90;;;;;;4844450;29;20064;-82
2021/08/15 09:21:56;;;;;;;5.68;3.20;;;21.00;99.90;;;;;;4839287;29;20062;-82
2021/08/15 09:24:24;;;;;;;;;;;21.10;99.90;;;;;;4848962;29;20402;-83
2021/08/15 09:27:10;;;;;;;6.53;2.97;;;21.20;99.90;;;;;;4829468;29;19936;-82
2021/08/15 09:29:39;;;;;;;7.45;2.97;;;21.20;99.90;;;;;;4836617;29;20062;-82
2021/08/15 09:32:07;;;;;;;5.15;2.40;;;21.20;99.90;;;;;;4828803;29;20055;-81
2021/08/15 09:34:35;;;;;;;6.75;2.60;;;21.20;99.90;;;;;;4834804;29;20080;-81
2021/08/15 09:37:03;;;;;;;9.27;3.33;;;21.00;99.90;;;;;;4835503;29;20058;-82
2021/08/15 09:39:36;;;;;;;6.30;3.03;;;20.90;99.90;;;;;;4835695;29;20452;-82
2021/08/15 09:42:04;;;;;;;8.27;3.95;;;20.70;99.90;;;;;;4835181;29;20068;-82
2021/08/15 09:44:33;;;;;;;9.82;4.07;;;20.40;99.90;;;;;;4824002;29;20066;-83
2021/08/15 09:47:13;;;;;;;9.05;4.72;;;20.40;99.90;;;;;;4849458;29;20054;-82
2021/08/15 09:49:44;;;;;;;13.02;5.43;;;20.40;99.90;;;;;;4847075;29;20058;-82
2021/08/15 09:52:18;;;;;;;13.98;5.03;;;20.40;99.90;;;;;;4824145;29;20054;-82
2021/08/15 09:54:58;;;;;;;11.35;4.63;;;20.40;99.90;;;;;;4838874;29;20061;-82
2021/08/15 09:57:29;;;;;;;10.80;5.35;;;20.50;99.90;;;;;;4838576;29;20062;-82
2021/08/15 09:59:58;;;;;;;8.82;3.15;;;20.70;99.90;;;;;;4850490;29;20054;-82
2021/08/15 10:02:27;;;;;;;9.27;4.25;;;20.80;99.90;;;;;;4851468;29;20056;-82
2021/08/15 10:04:56;;;;;;;17.70;4.47;;;20.90;99.90;;;;;;4830694;29;20125;-82
2021/08/15 10:07:24;;;;;;;10.38;5.75;;;20.80;99.90;;;;;;4820655;29;20061;-82
2021/08/15 10:09:54;;;;;;;10.60;5.03;;;20.70;99.90;;;;;;4836030;29;20089;-82
2021/08/15 10:12:23;;;;;;;12.48;5.35;;;20.60;99.90;;;;;;4836256;29;20059;-82
2021/08/15 10:14:50;;;;;;;12.40;5.57;;;20.50;99.90;;;;;;4833029;29;20073;-82
2021/08/15 10:17:28;;;;;;;9.38;4.80;;;20.40;99.90;;;;;;4831672;29;20525;-82
2021/08/15 10:20:01;;;;;;;14.02;4.60;;;20.50;99.90;;;;;;4839269;29;20072;-83
2021/08/15 10:22:32;;;;;;;8.60;4.40;;;20.50;99.90;;;;;;4838858;29;20046;-82
2021/08/15 10:25:10;;;;;;;6.97;3.55;;;20.60;99.90;;;;;;4839417;29;20054;-82
2021/08/15 10:27:42;;;;;;;7.85;3.92;;;20.60;99.90;;;;;;4838952;29;20062;-82
2021/08/15 10:30:23;;;;;;;9.82;4.32;;;20.80;99.90;;;;;;4851215;29;20063;-82
2021/08/15 10:32:56;;;;;;;9.18;4.68;;;20.80;99.90;;;;;;4822055;29;20054;-83
2021/08/15 10:35:28;;;;;;;10.40;4.05;;;20.90;99.90;;;;;;4826821;29;20065;-81
2021/08/15 10:38:15;;;;;;;6.43;3.67;;;20.90;99.90;;;;;;4836120;29;20062;-82
2021/08/15 10:40:48;;;;;;;5.85;3.13;;;20.80;99.90;;;;;;4823044;29;20054;-83
2021/08/15 10:43:22;;;;;;;9.80;4.20;;;20.80;99.90;;;;;;4821845;29;20074;-83
2021/08/15 10:46:08;;;;;;;;;;;20.80;99.90;;;;;;4852686;29;20050;-82
2021/08/15 10:48:51;;;;;;;6.20;3.25;;;21.00;99.90;;;;;;4837870;29;19931;-82
2021/08/15 10:51:41;;;;;;;8.18;3.20;;;21.00;99.90;;;;;;4846365;29;20057;-83
2021/08/15 10:54:27;;;;;;;6.68;3.55;;;21.20;99.90;;;;;;4840050;29;20069;-83
2021/08/15 10:57:00;;;;;;;7.88;2.85;;;21.30;99.90;;;;;;4837574;29;20061;-83
2021/08/15 10:59:42;;;;;;;8.50;3.53;;;21.40;99.90;;;;;;4837631;29;20178;-83
2021/08/15 11:02:19;;;;;;;5.40;2.30;;;21.50;99.90;;;;;;4821557;29;20055;-83
2021/08/15 11:04:59;;;;;;;6.93;2.83;;;21.40;99.90;;;;;;4838057;29;20050;-82
2021/08/15 11:07:42;;;;;;;4.90;2.60;;;21.40;99.90;;;;;;4825712;29;20069;-81
2021/08/15 11:10:12;;;;;;;7.18;2.35;;;21.50;99.90;;;;;;4836390;29;20070;-82
2021/08/15 11:13:15;;;;;;;4.97;2.38;;;21.50;99.90;;;;;;4835185;29;20074;-82
2021/08/15 11:15:43;;;;;;;6.03;3.42;;;21.50;99.90;;;;;;4839082;29;20515;-82
2021/08/15 11:18:15;;;;;;;4.38;1.92;;;21.60;99.90;;;;;;4823738;29;20058;-83
2021/08/15 11:20:49;;;;;;;8.98;1.50;;;21.70;99.90;;;;;;4851058;29;20050;-83
2021/08/15 11:23:25;;;;;;;4.35;1.23;;;21.80;99.90;;;;;;4837890;29;20050;-82
2021/08/15 11:25:55;;;;;;;1.95;1.20;;;21.80;99.90;;;;;;4838361;29;20062;-82
2021/08/15 11:28:29;;;;;;;3.22;1.20;;;21.80;99.90;;;;;;4856456;29;20054;-82
2021/08/15 11:30:58;;;;;;;3.47;1.67;;;21.90;99.90;;;;;;4830963;29;20626;-83
2021/08/15 11:33:27;;;;;;;1.45;0.95;;;21.90;99.90;;;;;;4837837;29;20059;-82
2021/08/15 11:35:55;;;;;;;2.67;1.92;;;22.00;99.90;;;;;;4828206;29;20059;-82
2021/08/15 11:38:23;;;;;;;1.58;0.90;;;22.10;99.90;;;;;;4859108;29;20051;-82
2021/08/15 11:40:54;;;;;;;4.25;2.42;;;22.20;99.90;;;;;;4837117;29;20058;-83
2021/08/15 11:43:25;;;;;;;1.92;1.58;;;22.20;99.90;;;;;;4837292;29;20058;-82
2021/08/15 11:45:55;;;;;;;;;;;22.20;99.90;;;;;;4837317;29;20046;-83
2021/08/15 11:48:28;;;;;;;2.03;1.45;;;22.50;99.90;;;;;;4837112;29;19925;-82
2021/08/15 11:51:03;;;;;;;1.85;1.23;;;22.10;99.90;;;;;;4845598;29;20062;-82
2021/08/15 11:53:36;;;;;;;2.65;1.67;;;22.20;99.90;;;;;;4818310;29;20067;-83
2021/08/15 11:56:15;;;;;;;1.73;1.08;;;22.30;99.90;;;;;;4834004;29;20579;-82
2021/08/15 11:58:48;;;;;;;3.20;1.73;;;22.40;99.90;;;;;;4804040;29;20066;-82
2021/08/15 12:01:18;;;;;;;4.10;1.60;;;22.50;99.90;;;;;;4844305;29;20065;-82
2021/08/15 12:04:02;;;;;;;3.15;1.20;;;22.60;99.90;;;;;;4839182;29;20062;-83
2021/08/15 12:06:39;;;;;;;3.67;1.65;;;22.70;99.90;;;;;;4834042;29;20077;-82
2021/08/15 12:09:26;;;;;;;2.05;1.23;;;22.80;99.90;;;;;;4846014;29;20054;-82
2021/08/15 12:11:58;;;;;;;5.57;2.60;;;23.00;99.90;;;;;;4843796;29;20064;-82
2021/08/15 12:14:37;;;;;;;4.30;1.88;;;23.10;99.70;;;;;;4850711;29;20066;-83
2021/08/15 12:17:05;;;;;;;2.15;1.42;;;23.20;99.40;;;;;;4834473;29;20050;-82
2021/08/15 12:19:35;;;;;;;3.65;1.73;;;23.30;99.40;;;;;;4847286;29;20062;-82
2021/08/15 12:22:17;;;;;;;1.90;1.33;;;23.50;99.30;;;;;;4837087;29;20050;-82
2021/08/15 12:24:59;;;;;;;3.72;1.38;;;23.70;98.90;;;;;;4822060;29;20059;-82
2021/08/15 12:27:30;;;;;;;4.10;1.30;;;23.80;98.20;;;;;;4828182;29;20059;-82
2021/08/15 12:30:06;;;;;;;2.38;1.48;;;23.70;98.10;;;;;;4835579;29;20055;-82
2021/08/15 12:32:34;;;;;;;4.18;1.63;;;23.70;98.30;;;;;;4821291;29;20063;-82
2021/08/15 12:35:03;;;;;;;3.53;1.70;;;23.80;98.40;;;;;;4831428;29;20328;-81
2021/08/15 12:37:43;;;;;;;2.03;1.00;;;24.00;98.10;;;;;;4828822;29;20067;-82
2021/08/15 12:40:18;;;;;;;2.63;1.20;;;24.20;97.50;;;;;;4841414;29;20066;-82
2021/08/15 12:42:54;;;;;;;2.53;1.60;;;24.40;97.20;;;;;;4840918;29;20066;-83
2021/08/15 12:45:40;;;;;;;5.50;2.30;;;24.50;96.90;;;;;;4830954;29;20060;-82
2021/08/15 12:48:13;;;;;;;2.40;1.33;;;24.50;96.80;;;;;;4827726;29;20070;-82
2021/08/15 12:50:47;;;;;;;3.67;1.23;;;24.50;96.40;;;;;;4842584;29;20051;-83
2021/08/15 12:53:22;;;;;;;6.03;1.10;;;24.30;96.30;;;;;;4845861;29;20068;-82
2021/08/15 12:55:51;;;;;;;4.45;1.60;;;24.00;96.50;;;;;;4837694;29;20062;-83
2021/08/15 12:58:21;;;;;;;3.60;1.20;;;23.80;97.60;;;;;;4821887;29;20371;-83